sensor_id;sensor_type;location;lat;lon;timestamp;P1;durP1;ratioP1;P2;durP2;ratioP2
39930;SDS011;26635;-35.248;149.138;2023-04-25T00:02:30;3.13;;;1.35;;
39930;SDS011;26635;-35.248;149.138;2023-04-25T00:05:02;4.07;;;1.42;;
39930;SDS011;26635;-35.248;149.138;2023-04-25T00:07:34;3.30;;;1.35;;
39930;SDS011;26635;-35.248;149.138;2023-04-25T00:10:05;2.95;;;1.67;;
39930;SDS011;26635;-35.248;149.138;2023-04-25T00:12:37;2.90;;;1.23;;
39930;SDS011;26635;-35.248;149.138;2023-04-25T00:15:10;3.38;;;1.10;;
39930;SDS011;26635;-35.248;149.138;2023-04-25T00:17:41;3.13;;;1.77;;
39930;SDS011;26635;-35.248;149.138;2023-04-25T00:20:15;7.18;;;1.60;;
39930;SDS011;26635;-35.248;149.138;2023-04-25T00:22:47;6.40;;;1.65;;
39930;SDS011;26635;-35.248;149.138;2023-04-25T00:25:18;4.90;;;1.58;;
39930;SDS011;26635;-35.248;149.138;2023-04-25T00:27:49;2.85;;;1.20;;
39930;SDS011;26635;-35.248;149.138;2023-04-25T00:30:20;4.43;;;1.15;;
39930;SDS011;26635;-35.248;149.138;2023-04-25T00:32:51;3.97;;;1.88;;
39930;SDS011;26635;-35.248;149.138;2023-04-25T00:35:23;5.00;;;1.48;;
39930;SDS011;26635;-35.248;149.138;2023-04-25T00:37:54;2.58;;;0.90;;
39930;SDS011;26635;-35.248;149.138;2023-04-25T00:40:25;3.88;;;1.17;;
39930;SDS011;26635;-35.248;149.138;2023-04-25T00:42:58;4.68;;;1.48;;
39930;SDS011;26635;-35.248;149.138;2023-04-25T00:45:30;2.33;;;1.20;;
39930;SDS011;26635;-35.248;149.138;2023-04-25T00:48:01;2.90;;;1.25;;
39930;SDS011;26635;-35.248;149.138;2023-04-25T00:50:34;2.08;;;0.80;;
39930;SDS011;26635;-35.248;149.138;2023-04-25T00:53:06;3.13;;;1.25;;
39930;SDS011;26635;-35.248;149.138;2023-04-25T00:55:51;2.83;;;0.93;;
39930;SDS011;26635;-35.248;149.138;2023-04-25T00:58:22;4.45;;;1.20;;
39930;SDS011;26635;-35.248;149.138;2023-04-25T01:00:53;2.72;;;1.10;;
39930;SDS011;26635;-35.248;149.138;2023-04-25T01:03:27;2.22;;;0.70;;
39930;SDS011;26635;-35.248;149.138;2023-04-25T01:06:00;1.92;;;1.00;;
39930;SDS011;26635;-35.248;149.138;2023-04-25T01:08:31;2.88;;;0.70;;
39930;SDS011;26635;-35.248;149.138;2023-04-25T01:11:04;4.57;;;0.80;;
39930;SDS011;26635;-35.248;149.138;2023-04-25T01:13:35;3.15;;;1.10;;
39930;SDS011;26635;-35.248;149.138;2023-04-25T01:16:06;2.50;;;1.17;;
39930;SDS011;26635;-35.248;149.138;2023-04-25T01:18:40;2.28;;;0.80;;
39930;SDS011;26635;-35.248;149.138;2023-04-25T01:21:12;3.83;;;1.05;;
39930;SDS011;26635;-35.248;149.138;2023-04-25T01:23:42;3.63;;;1.50;;
39930;SDS011;26635;-35.248;149.138;2023-04-25T01:26:14;2.58;;;0.85;;
39930;SDS011;26635;-35.248;149.138;2023-04-25T01:28:45;2.58;;;0.80;;
39930;SDS011;26635;-35.248;149.138;2023-04-25T01:31:17;3.75;;;0.77;;
39930;SDS011;26635;-35.248;149.138;2023-04-25T01:33:48;2.10;;;0.70;;
39930;SDS011;26635;-35.248;149.138;2023-04-25T01:36:19;3.63;;;0.82;;
39930;SDS011;26635;-35.248;149.138;2023-04-25T01:38:51;2.45;;;1.10;;
39930;SDS011;26635;-35.248;149.138;2023-04-25T01:41:22;2.03;;;0.85;;
39930;SDS011;26635;-35.248;149.138;2023-04-25T01:43:53;3.80;;;1.20;;
39930;SDS011;26635;-35.248;149.138;2023-04-25T01:46:25;2.10;;;0.80;;
39930;SDS011;26635;-35.248;149.138;2023-04-25T01:48:56;4.32;;;0.85;;
39930;SDS011;26635;-35.248;149.138;2023-04-25T01:51:28;2.47;;;0.80;;
39930;SDS011;26635;-35.248;149.138;2023-04-25T01:53:59;2.22;;;0.80;;
39930;SDS011;26635;-35.248;149.138;2023-04-25T01:56:30;2.17;;;0.88;;
39930;SDS011;26635;-35.248;149.138;2023-04-25T01:59:02;1.52;;;0.70;;
39930;SDS011;26635;-35.248;149.138;2023-04-25T02:01:35;2.78;;;0.95;;
39930;SDS011;26635;-35.248;149.138;2023-04-25T02:04:06;1.58;;;0.75;;
39930;SDS011;26635;-35.248;149.138;2023-04-25T02:06:38;2.40;;;1.00;;
39930;SDS011;26635;-35.248;149.138;2023-04-25T02:09:09;2.60;;;0.57;;
39930;SDS011;26635;-35.248;149.138;2023-04-25T02:11:41;4.45;;;1.70;;
39930;SDS011;26635;-35.248;149.138;2023-04-25T02:14:14;2.85;;;0.90;;
39930;SDS011;26635;-35.248;149.138;2023-04-25T02:16:45;2.20;;;0.60;;
39930;SDS011;26635;-35.248;149.138;2023-04-25T02:19:16;1.30;;;0.60;;
39930;SDS011;26635;-35.248;149.138;2023-04-25T02:21:48;1.88;;;0.70;;
39930;SDS011;26635;-35.248;149.138;2023-04-25T02:24:18;3.47;;;1.63;;
39930;SDS011;26635;-35.248;149.138;2023-04-25T02:26:49;3.00;;;1.08;;
39930;SDS011;26635;-35.248;149.138;2023-04-25T02:29:21;1.85;;;0.93;;
39930;SDS011;26635;-35.248;149.138;2023-04-25T02:31:53;4.35;;;0.90;;
39930;SDS011;26635;-35.248;149.138;2023-04-25T02:34:25;2.20;;;1.00;;
39930;SDS011;26635;-35.248;149.138;2023-04-25T02:36:55;2.38;;;0.90;;
39930;SDS011;26635;-35.248;149.138;2023-04-25T02:39:27;2.15;;;0.98;;
39930;SDS011;26635;-35.248;149.138;2023-04-25T02:41:58;1.85;;;0.90;;
39930;SDS011;26635;-35.248;149.138;2023-04-25T02:44:29;2.38;;;0.75;;
39930;SDS011;26635;-35.248;149.138;2023-04-25T02:47:01;2.70;;;0.88;;
39930;SDS011;26635;-35.248;149.138;2023-04-25T02:49:32;1.73;;;0.80;;
39930;SDS011;26635;-35.248;149.138;2023-04-25T02:52:03;3.60;;;1.15;;
39930;SDS011;26635;-35.248;149.138;2023-04-25T02:54:34;4.68;;;2.42;;
39930;SDS011;26635;-35.248;149.138;2023-04-25T02:57:06;1.70;;;0.77;;
39930;SDS011;26635;-35.248;149.138;2023-04-25T02:59:38;6.20;;;2.22;;
39930;SDS011;26635;-35.248;149.138;2023-04-25T03:02:09;2.33;;;1.20;;
39930;SDS011;26635;-35.248;149.138;2023-04-25T03:04:40;2.40;;;0.68;;
39930;SDS011;26635;-35.248;149.138;2023-04-25T03:07:11;2.42;;;1.10;;
39930;SDS011;26635;-35.248;149.138;2023-04-25T03:09:42;2.08;;;1.00;;
39930;SDS011;26635;-35.248;149.138;2023-04-25T03:12:13;5.38;;;1.33;;
39930;SDS011;26635;-35.248;149.138;2023-04-25T03:14:44;1.35;;;0.70;;
39930;SDS011;26635;-35.248;149.138;2023-04-25T03:17:15;4.10;;;0.80;;
39930;SDS011;26635;-35.248;149.138;2023-04-25T03:19:47;2.17;;;0.93;;
39930;SDS011;26635;-35.248;149.138;2023-04-25T03:22:18;1.98;;;0.98;;
39930;SDS011;26635;-35.248;149.138;2023-04-25T03:24:49;2.55;;;1.17;;
39930;SDS011;26635;-35.248;149.138;2023-04-25T03:27:20;2.42;;;0.73;;
39930;SDS011;26635;-35.248;149.138;2023-04-25T03:29:51;1.55;;;0.60;;
39930;SDS011;26635;-35.248;149.138;2023-04-25T03:32:22;3.45;;;0.93;;
39930;SDS011;26635;-35.248;149.138;2023-04-25T03:34:53;3.33;;;1.27;;
39930;SDS011;26635;-35.248;149.138;2023-04-25T03:37:24;1.63;;;0.60;;
39930;SDS011;26635;-35.248;149.138;2023-04-25T03:39:55;1.77;;;0.70;;
39930;SDS011;26635;-35.248;149.138;2023-04-25T03:42:26;2.85;;;0.90;;
39930;SDS011;26635;-35.248;149.138;2023-04-25T03:44:57;1.63;;;0.77;;
39930;SDS011;26635;-35.248;149.138;2023-04-25T03:47:28;3.35;;;0.80;;
39930;SDS011;26635;-35.248;149.138;2023-04-25T03:49:59;1.95;;;0.80;;
39930;SDS011;26635;-35.248;149.138;2023-04-25T03:52:31;3.83;;;0.88;;
39930;SDS011;26635;-35.248;149.138;2023-04-25T03:55:03;2.08;;;0.80;;
39930;SDS011;26635;-35.248;149.138;2023-04-25T03:57:34;2.20;;;0.75;;
39930;SDS011;26635;-35.248;149.138;2023-04-25T04:00:05;2.25;;;0.88;;
39930;SDS011;26635;-35.248;149.138;2023-04-25T04:02:36;2.63;;;1.00;;
39930;SDS011;26635;-35.248;149.138;2023-04-25T04:05:11;2.08;;;0.82;;
39930;SDS011;26635;-35.248;149.138;2023-04-25T04:07:42;1.20;;;0.80;;
39930;SDS011;26635;-35.248;149.138;2023-04-25T04:10:13;2.83;;;0.90;;
39930;SDS011;26635;-35.248;149.138;2023-04-25T04:12:45;4.05;;;1.02;;
39930;SDS011;26635;-35.248;149.138;2023-04-25T04:15:16;3.00;;;1.33;;
39930;SDS011;26635;-35.248;149.138;2023-04-25T04:17:48;1.98;;;1.00;;
39930;SDS011;26635;-35.248;149.138;2023-04-25T04:20:19;2.45;;;0.90;;
39930;SDS011;26635;-35.248;149.138;2023-04-25T04:22:49;2.85;;;1.13;;
39930;SDS011;26635;-35.248;149.138;2023-04-25T04:25:20;1.67;;;0.68;;
39930;SDS011;26635;-35.248;149.138;2023-04-25T04:27:51;1.58;;;0.70;;
39930;SDS011;26635;-35.248;149.138;2023-04-25T04:30:24;2.15;;;0.80;;
39930;SDS011;26635;-35.248;149.138;2023-04-25T04:32:58;3.35;;;0.85;;
39930;SDS011;26635;-35.248;149.138;2023-04-25T04:35:29;1.67;;;0.70;;
39930;SDS011;26635;-35.248;149.138;2023-04-25T04:38:00;1.70;;;0.90;;
39930;SDS011;26635;-35.248;149.138;2023-04-25T04:40:30;1.10;;;0.50;;
39930;SDS011;26635;-35.248;149.138;2023-04-25T04:43:01;1.73;;;0.70;;
39930;SDS011;26635;-35.248;149.138;2023-04-25T04:45:31;2.05;;;0.90;;
39930;SDS011;26635;-35.248;149.138;2023-04-25T04:48:02;1.45;;;0.50;;
39930;SDS011;26635;-35.248;149.138;2023-04-25T04:50:34;1.90;;;0.70;;
39930;SDS011;26635;-35.248;149.138;2023-04-25T04:53:07;1.92;;;0.70;;
39930;SDS011;26635;-35.248;149.138;2023-04-25T04:55:38;2.17;;;0.60;;
39930;SDS011;26635;-35.248;149.138;2023-04-25T04:58:10;3.53;;;0.57;;
39930;SDS011;26635;-35.248;149.138;2023-04-25T05:00:44;1.60;;;0.80;;
39930;SDS011;26635;-35.248;149.138;2023-04-25T05:03:15;3.80;;;0.93;;
39930;SDS011;26635;-35.248;149.138;2023-04-25T05:05:46;2.40;;;0.52;;
39930;SDS011;26635;-35.248;149.138;2023-04-25T05:08:17;2.15;;;0.60;;
39930;SDS011;26635;-35.248;149.138;2023-04-25T05:10:56;2.00;;;0.50;;
39930;SDS011;26635;-35.248;149.138;2023-04-25T05:13:27;4.32;;;0.60;;
39930;SDS011;26635;-35.248;149.138;2023-04-25T05:16:00;2.92;;;1.25;;
39930;SDS011;26635;-35.248;149.138;2023-04-25T05:18:30;1.48;;;0.60;;
39930;SDS011;26635;-35.248;149.138;2023-04-25T05:21:01;4.88;;;0.85;;
39930;SDS011;26635;-35.248;149.138;2023-04-25T05:23:32;3.72;;;1.02;;
39930;SDS011;26635;-35.248;149.138;2023-04-25T05:26:04;1.55;;;0.75;;
39930;SDS011;26635;-35.248;149.138;2023-04-25T05:28:35;2.05;;;1.00;;
39930;SDS011;26635;-35.248;149.138;2023-04-25T05:31:06;2.08;;;0.60;;
39930;SDS011;26635;-35.248;149.138;2023-04-25T05:33:38;2.08;;;0.70;;
39930;SDS011;26635;-35.248;149.138;2023-04-25T05:36:09;1.98;;;0.80;;
39930;SDS011;26635;-35.248;149.138;2023-04-25T05:38:40;5.10;;;0.80;;
39930;SDS011;26635;-35.248;149.138;2023-04-25T05:41:11;0.95;;;0.68;;
39930;SDS011;26635;-35.248;149.138;2023-04-25T05:43:41;1.20;;;0.50;;
39930;SDS011;26635;-35.248;149.138;2023-04-25T05:46:16;2.47;;;0.95;;
39930;SDS011;26635;-35.248;149.138;2023-04-25T05:48:47;2.50;;;0.77;;
39930;SDS011;26635;-35.248;149.138;2023-04-25T05:51:18;2.92;;;0.70;;
39930;SDS011;26635;-35.248;149.138;2023-04-25T05:53:49;2.28;;;0.50;;
39930;SDS011;26635;-35.248;149.138;2023-04-25T05:56:20;2.95;;;0.70;;
39930;SDS011;26635;-35.248;149.138;2023-04-25T05:58:51;1.42;;;0.82;;
39930;SDS011;26635;-35.248;149.138;2023-04-25T06:01:22;1.48;;;0.65;;
39930;SDS011;26635;-35.248;149.138;2023-04-25T06:03:54;2.30;;;0.90;;
39930;SDS011;26635;-35.248;149.138;2023-04-25T06:06:27;1.08;;;0.50;;
39930;SDS011;26635;-35.248;149.138;2023-04-25T06:08:59;1.40;;;0.70;;
39930;SDS011;26635;-35.248;149.138;2023-04-25T06:11:30;2.95;;;0.95;;
39930;SDS011;26635;-35.248;149.138;2023-04-25T06:14:02;1.85;;;0.77;;
39930;SDS011;26635;-35.248;149.138;2023-04-25T06:16:39;2.95;;;1.00;;
39930;SDS011;26635;-35.248;149.138;2023-04-25T06:19:11;1.77;;;0.63;;
39930;SDS011;26635;-35.248;149.138;2023-04-25T06:21:44;2.35;;;0.88;;
39930;SDS011;26635;-35.248;149.138;2023-04-25T06:24:17;2.53;;;0.68;;
39930;SDS011;26635;-35.248;149.138;2023-04-25T06:26:54;2.58;;;0.80;;
39930;SDS011;26635;-35.248;149.138;2023-04-25T06:29:26;1.33;;;0.80;;
39930;SDS011;26635;-35.248;149.138;2023-04-25T06:32:01;2.40;;;0.60;;
39930;SDS011;26635;-35.248;149.138;2023-04-25T06:34:42;3.28;;;0.63;;
39930;SDS011;26635;-35.248;149.138;2023-04-25T06:37:16;1.50;;;0.77;;
39930;SDS011;26635;-35.248;149.138;2023-04-25T06:39:54;1.90;;;0.63;;
39930;SDS011;26635;-35.248;149.138;2023-04-25T06:42:25;2.95;;;0.75;;
39930;SDS011;26635;-35.248;149.138;2023-04-25T06:44:58;1.08;;;0.63;;
39930;SDS011;26635;-35.248;149.138;2023-04-25T06:47:29;2.95;;;1.17;;
39930;SDS011;26635;-35.248;149.138;2023-04-25T06:50:01;1.63;;;0.60;;
39930;SDS011;26635;-35.248;149.138;2023-04-25T06:52:35;2.28;;;0.75;;
39930;SDS011;26635;-35.248;149.138;2023-04-25T06:55:06;2.28;;;0.82;;
39930;SDS011;26635;-35.248;149.138;2023-04-25T06:57:38;2.13;;;0.90;;
39930;SDS011;26635;-35.248;149.138;2023-04-25T07:00:09;2.15;;;0.90;;
39930;SDS011;26635;-35.248;149.138;2023-04-25T07:02:41;1.00;;;0.60;;
39930;SDS011;26635;-35.248;149.138;2023-04-25T07:05:14;1.25;;;0.60;;
39930;SDS011;26635;-35.248;149.138;2023-04-25T07:07:47;1.38;;;0.60;;
39930;SDS011;26635;-35.248;149.138;2023-04-25T07:10:20;1.75;;;0.70;;
39930;SDS011;26635;-35.248;149.138;2023-04-25T07:12:54;2.03;;;0.93;;
39930;SDS011;26635;-35.248;149.138;2023-04-25T07:15:26;4.13;;;0.90;;
39930;SDS011;26635;-35.248;149.138;2023-04-25T07:18:00;2.05;;;0.65;;
39930;SDS011;26635;-35.248;149.138;2023-04-25T07:20:33;3.25;;;1.20;;
39930;SDS011;26635;-35.248;149.138;2023-04-25T07:23:05;2.20;;;0.90;;
39930;SDS011;26635;-35.248;149.138;2023-04-25T07:25:39;4.15;;;1.15;;
39930;SDS011;26635;-35.248;149.138;2023-04-25T07:28:12;4.15;;;1.95;;
39930;SDS011;26635;-35.248;149.138;2023-04-25T07:30:55;2.78;;;1.77;;
39930;SDS011;26635;-35.248;149.138;2023-04-25T07:33:49;2.72;;;1.15;;
39930;SDS011;26635;-35.248;149.138;2023-04-25T07:36:25;2.25;;;0.80;;
39930;SDS011;26635;-35.248;149.138;2023-04-25T07:39:01;4.53;;;1.20;;
39930;SDS011;26635;-35.248;149.138;2023-04-25T07:41:35;5.40;;;1.45;;
39930;SDS011;26635;-35.248;149.138;2023-04-25T07:44:06;4.47;;;1.95;;
39930;SDS011;26635;-35.248;149.138;2023-04-25T07:46:37;3.70;;;2.05;;
39930;SDS011;26635;-35.248;149.138;2023-04-25T07:49:09;5.22;;;1.90;;
39930;SDS011;26635;-35.248;149.138;2023-04-25T07:51:43;5.03;;;2.17;;
39930;SDS011;26635;-35.248;149.138;2023-04-25T07:54:16;5.53;;;2.50;;
39930;SDS011;26635;-35.248;149.138;2023-04-25T07:56:47;4.32;;;2.15;;
39930;SDS011;26635;-35.248;149.138;2023-04-25T07:59:20;7.47;;;3.63;;
39930;SDS011;26635;-35.248;149.138;2023-04-25T08:01:53;11.07;;;3.67;;
39930;SDS011;26635;-35.248;149.138;2023-04-25T08:04:29;4.85;;;3.33;;
39930;SDS011;26635;-35.248;149.138;2023-04-25T08:07:01;7.03;;;3.38;;
39930;SDS011;26635;-35.248;149.138;2023-04-25T08:09:32;6.78;;;3.63;;
39930;SDS011;26635;-35.248;149.138;2023-04-25T08:12:04;7.50;;;5.45;;
39930;SDS011;26635;-35.248;149.138;2023-04-25T08:14:50;8.25;;;5.72;;
39930;SDS011;26635;-35.248;149.138;2023-04-25T08:17:29;8.85;;;5.97;;
39930;SDS011;26635;-35.248;149.138;2023-04-25T08:20:02;6.88;;;3.90;;
39930;SDS011;26635;-35.248;149.138;2023-04-25T08:22:36;4.00;;;2.25;;
39930;SDS011;26635;-35.248;149.138;2023-04-25T08:25:12;4.40;;;1.80;;
39930;SDS011;26635;-35.248;149.138;2023-04-25T08:27:45;3.15;;;1.52;;
39930;SDS011;26635;-35.248;149.138;2023-04-25T08:30:20;3.72;;;1.80;;
39930;SDS011;26635;-35.248;149.138;2023-04-25T08:32:52;2.90;;;1.42;;
39930;SDS011;26635;-35.248;149.138;2023-04-25T08:35:25;3.03;;;1.40;;
39930;SDS011;26635;-35.248;149.138;2023-04-25T08:38:05;4.97;;;1.90;;
39930;SDS011;26635;-35.248;149.138;2023-04-25T08:40:38;4.55;;;1.50;;
39930;SDS011;26635;-35.248;149.138;2023-04-25T08:45:59;4.43;;;2.63;;
39930;SDS011;26635;-35.248;149.138;2023-04-25T08:48:34;5.82;;;3.90;;
39930;SDS011;26635;-35.248;149.138;2023-04-25T08:51:07;4.20;;;1.77;;
39930;SDS011;26635;-35.248;149.138;2023-04-25T08:53:46;3.88;;;2.28;;
39930;SDS011;26635;-35.248;149.138;2023-04-25T08:56:48;4.53;;;1.40;;
39930;SDS011;26635;-35.248;149.138;2023-04-25T08:59:21;3.58;;;1.30;;
39930;SDS011;26635;-35.248;149.138;2023-04-25T09:01:53;4.25;;;1.35;;
39930;SDS011;26635;-35.248;149.138;2023-04-25T09:04:31;3.42;;;1.45;;
39930;SDS011;26635;-35.248;149.138;2023-04-25T09:07:07;2.42;;;1.40;;
39930;SDS011;26635;-35.248;149.138;2023-04-25T09:09:39;3.70;;;2.03;;
39930;SDS011;26635;-35.248;149.138;2023-04-25T09:12:12;3.55;;;2.08;;
39930;SDS011;26635;-35.248;149.138;2023-04-25T09:14:43;3.08;;;1.60;;
39930;SDS011;26635;-35.248;149.138;2023-04-25T09:17:35;2.95;;;1.30;;
39930;SDS011;26635;-35.248;149.138;2023-04-25T09:20:10;2.35;;;1.48;;
39930;SDS011;26635;-35.248;149.138;2023-04-25T09:22:47;4.47;;;1.80;;
39930;SDS011;26635;-35.248;149.138;2023-04-25T09:25:21;2.63;;;1.27;;
39930;SDS011;26635;-35.248;149.138;2023-04-25T09:28:03;3.03;;;1.17;;
39930;SDS011;26635;-35.248;149.138;2023-04-25T09:30:38;1.33;;;1.20;;
39930;SDS011;26635;-35.248;149.138;2023-04-25T09:33:10;3.53;;;1.80;;
39930;SDS011;26635;-35.248;149.138;2023-04-25T09:35:49;2.63;;;1.08;;
39930;SDS011;26635;-35.248;149.138;2023-04-25T09:38:24;3.40;;;1.20;;
39930;SDS011;26635;-35.248;149.138;2023-04-25T09:41:04;2.72;;;1.17;;
39930;SDS011;26635;-35.248;149.138;2023-04-25T09:43:39;16.83;;;6.50;;
39930;SDS011;26635;-35.248;149.138;2023-04-25T09:46:32;7.10;;;3.03;;
39930;SDS011;26635;-35.248;149.138;2023-04-25T09:49:15;9.68;;;4.25;;
39930;SDS011;26635;-35.248;149.138;2023-04-25T09:51:58;11.15;;;3.70;;
39930;SDS011;26635;-35.248;149.138;2023-04-25T09:54:35;6.63;;;3.00;;
39930;SDS011;26635;-35.248;149.138;2023-04-25T09:57:14;3.97;;;2.22;;
39930;SDS011;26635;-35.248;149.138;2023-04-25T09:59:47;6.55;;;2.20;;
39930;SDS011;26635;-35.248;149.138;2023-04-25T10:02:23;4.03;;;1.98;;
39930;SDS011;26635;-35.248;149.138;2023-04-25T10:04:58;3.53;;;1.37;;
39930;SDS011;26635;-35.248;149.138;2023-04-25T10:07:33;3.80;;;1.95;;
39930;SDS011;26635;-35.248;149.138;2023-04-25T10:10:13;3.42;;;1.45;;
39930;SDS011;26635;-35.248;149.138;2023-04-25T10:12:45;6.75;;;2.22;;
39930;SDS011;26635;-35.248;149.138;2023-04-25T10:15:21;3.17;;;1.60;;
39930;SDS011;26635;-35.248;149.138;2023-04-25T10:17:53;3.53;;;1.55;;
39930;SDS011;26635;-35.248;149.138;2023-04-25T10:20:26;4.65;;;1.80;;
39930;SDS011;26635;-35.248;149.138;2023-04-25T10:23:11;2.97;;;1.73;;
39930;SDS011;26635;-35.248;149.138;2023-04-25T10:25:45;3.85;;;1.63;;
39930;SDS011;26635;-35.248;149.138;2023-04-25T10:28:17;2.30;;;1.50;;
39930;SDS011;26635;-35.248;149.138;2023-04-25T10:30:58;2.90;;;2.05;;
39930;SDS011;26635;-35.248;149.138;2023-04-25T10:33:40;5.22;;;2.03;;
39930;SDS011;26635;-35.248;149.138;2023-04-25T10:36:19;9.73;;;2.47;;
39930;SDS011;26635;-35.248;149.138;2023-04-25T10:38:52;4.30;;;2.33;;
39930;SDS011;26635;-35.248;149.138;2023-04-25T10:41:30;5.95;;;2.85;;
39930;SDS011;26635;-35.248;149.138;2023-04-25T10:44:17;4.30;;;2.05;;
39930;SDS011;26635;-35.248;149.138;2023-04-25T10:46:49;4.47;;;2.03;;
39930;SDS011;26635;-35.248;149.138;2023-04-25T10:49:30;5.47;;;2.58;;
39930;SDS011;26635;-35.248;149.138;2023-04-25T10:54:58;3.15;;;2.00;;
39930;SDS011;26635;-35.248;149.138;2023-04-25T10:57:30;5.47;;;2.30;;
39930;SDS011;26635;-35.248;149.138;2023-04-25T11:00:14;3.67;;;2.65;;
39930;SDS011;26635;-35.248;149.138;2023-04-25T11:03:07;4.65;;;2.20;;
39930;SDS011;26635;-35.248;149.138;2023-04-25T11:05:37;3.22;;;1.70;;
39930;SDS011;26635;-35.248;149.138;2023-04-25T11:08:34;2.78;;;2.15;;
39930;SDS011;26635;-35.248;149.138;2023-04-25T11:11:29;5.95;;;3.33;;
39930;SDS011;26635;-35.248;149.138;2023-04-25T11:14:01;5.88;;;2.90;;
39930;SDS011;26635;-35.248;149.138;2023-04-25T11:16:32;8.32;;;3.17;;
39930;SDS011;26635;-35.248;149.138;2023-04-25T11:19:07;5.13;;;3.25;;
39930;SDS011;26635;-35.248;149.138;2023-04-25T11:21:38;7.32;;;3.03;;
39930;SDS011;26635;-35.248;149.138;2023-04-25T11:24:10;7.30;;;3.03;;
39930;SDS011;26635;-35.248;149.138;2023-04-25T11:26:43;7.68;;;2.85;;
39930;SDS011;26635;-35.248;149.138;2023-04-25T11:29:17;6.80;;;3.55;;
39930;SDS011;26635;-35.248;149.138;2023-04-25T11:31:52;6.05;;;3.03;;
39930;SDS011;26635;-35.248;149.138;2023-04-25T11:34:28;7.03;;;3.42;;
39930;SDS011;26635;-35.248;149.138;2023-04-25T11:37:01;5.72;;;4.07;;
39930;SDS011;26635;-35.248;149.138;2023-04-25T11:39:34;6.97;;;3.78;;
39930;SDS011;26635;-35.248;149.138;2023-04-25T11:42:05;5.22;;;3.33;;
39930;SDS011;26635;-35.248;149.138;2023-04-25T11:44:39;8.00;;;5.57;;
39930;SDS011;26635;-35.248;149.138;2023-04-25T11:47:11;7.88;;;5.15;;
39930;SDS011;26635;-35.248;149.138;2023-04-25T11:49:42;6.60;;;4.20;;
39930;SDS011;26635;-35.248;149.138;2023-04-25T11:52:14;7.93;;;5.32;;
39930;SDS011;26635;-35.248;149.138;2023-04-25T11:54:45;7.88;;;5.00;;
39930;SDS011;26635;-35.248;149.138;2023-04-25T11:57:18;7.63;;;4.53;;
39930;SDS011;26635;-35.248;149.138;2023-04-25T11:59:51;8.65;;;4.50;;
39930;SDS011;26635;-35.248;149.138;2023-04-25T12:02:25;6.53;;;4.45;;
39930;SDS011;26635;-35.248;149.138;2023-04-25T12:04:59;13.75;;;4.65;;
39930;SDS011;26635;-35.248;149.138;2023-04-25T12:07:49;5.38;;;4.10;;
39930;SDS011;26635;-35.248;149.138;2023-04-25T12:10:20;7.40;;;4.10;;
39930;SDS011;26635;-35.248;149.138;2023-04-25T12:12:54;6.82;;;4.35;;
39930;SDS011;26635;-35.248;149.138;2023-04-25T12:15:25;6.65;;;3.78;;
39930;SDS011;26635;-35.248;149.138;2023-04-25T12:17:56;6.32;;;4.28;;
39930;SDS011;26635;-35.248;149.138;2023-04-25T12:20:27;6.57;;;3.90;;
39930;SDS011;26635;-35.248;149.138;2023-04-25T12:22:59;8.50;;;5.05;;
39930;SDS011;26635;-35.248;149.138;2023-04-25T12:25:36;10.88;;;6.55;;
39930;SDS011;26635;-35.248;149.138;2023-04-25T12:28:17;11.90;;;8.00;;
39930;SDS011;26635;-35.248;149.138;2023-04-25T12:31:00;12.90;;;8.38;;
39930;SDS011;26635;-35.248;149.138;2023-04-25T12:33:36;13.15;;;8.82;;
39930;SDS011;26635;-35.248;149.138;2023-04-25T12:36:09;12.67;;;8.50;;
39930;SDS011;26635;-35.248;149.138;2023-04-25T12:38:43;10.90;;;7.40;;
39930;SDS011;26635;-35.248;149.138;2023-04-25T12:41:14;11.82;;;7.95;;
39930;SDS011;26635;-35.248;149.138;2023-04-25T12:43:44;14.23;;;7.18;;
39930;SDS011;26635;-35.248;149.138;2023-04-25T12:46:16;9.15;;;6.38;;
39930;SDS011;26635;-35.248;149.138;2023-04-25T12:48:47;10.15;;;6.63;;
39930;SDS011;26635;-35.248;149.138;2023-04-25T12:51:19;8.40;;;6.57;;
39930;SDS011;26635;-35.248;149.138;2023-04-25T12:53:54;9.85;;;5.35;;
39930;SDS011;26635;-35.248;149.138;2023-04-25T12:56:30;10.32;;;5.68;;
39930;SDS011;26635;-35.248;149.138;2023-04-25T12:59:02;6.95;;;4.43;;
39930;SDS011;26635;-35.248;149.138;2023-04-25T13:01:33;5.65;;;3.97;;
39930;SDS011;26635;-35.248;149.138;2023-04-25T13:04:05;7.57;;;4.30;;
39930;SDS011;26635;-35.248;149.138;2023-04-25T13:06:36;6.63;;;4.18;;
39930;SDS011;26635;-35.248;149.138;2023-04-25T13:09:08;5.93;;;3.63;;
39930;SDS011;26635;-35.248;149.138;2023-04-25T13:11:42;8.77;;;4.70;;
39930;SDS011;26635;-35.248;149.138;2023-04-25T13:14:15;6.95;;;4.30;;
39930;SDS011;26635;-35.248;149.138;2023-04-25T13:16:46;8.27;;;4.00;;
39930;SDS011;26635;-35.248;149.138;2023-04-25T13:19:17;6.43;;;4.20;;
39930;SDS011;26635;-35.248;149.138;2023-04-25T13:21:48;5.95;;;3.63;;
39930;SDS011;26635;-35.248;149.138;2023-04-25T13:24:19;9.98;;;3.95;;
39930;SDS011;26635;-35.248;149.138;2023-04-25T13:26:52;7.47;;;3.67;;
39930;SDS011;26635;-35.248;149.138;2023-04-25T13:29:23;8.75;;;4.30;;
39930;SDS011;26635;-35.248;149.138;2023-04-25T13:31:54;6.28;;;3.53;;
39930;SDS011;26635;-35.248;149.138;2023-04-25T13:34:24;7.60;;;4.15;;
39930;SDS011;26635;-35.248;149.138;2023-04-25T13:36:55;5.80;;;3.85;;
39930;SDS011;26635;-35.248;149.138;2023-04-25T13:39:25;6.18;;;3.65;;
39930;SDS011;26635;-35.248;149.138;2023-04-25T13:41:56;5.60;;;3.60;;
39930;SDS011;26635;-35.248;149.138;2023-04-25T13:44:27;8.48;;;4.35;;
39930;SDS011;26635;-35.248;149.138;2023-04-25T13:46:57;7.57;;;4.72;;
39930;SDS011;26635;-35.248;149.138;2023-04-25T13:49:29;7.65;;;4.63;;
39930;SDS011;26635;-35.248;149.138;2023-04-25T13:51:59;6.95;;;4.43;;
39930;SDS011;26635;-35.248;149.138;2023-04-25T13:54:29;7.75;;;4.60;;
39930;SDS011;26635;-35.248;149.138;2023-04-25T13:57:00;6.97;;;4.05;;
39930;SDS011;26635;-35.248;149.138;2023-04-25T13:59:30;8.70;;;4.05;;
39930;SDS011;26635;-35.248;149.138;2023-04-25T14:02:01;7.20;;;4.80;;
39930;SDS011;26635;-35.248;149.138;2023-04-25T14:04:31;6.53;;;4.15;;
39930;SDS011;26635;-35.248;149.138;2023-04-25T14:07:02;6.63;;;4.22;;
39930;SDS011;26635;-35.248;149.138;2023-04-25T14:09:33;6.57;;;3.70;;
39930;SDS011;26635;-35.248;149.138;2023-04-25T14:12:04;6.22;;;4.15;;
39930;SDS011;26635;-35.248;149.138;2023-04-25T14:14:37;7.57;;;4.07;;
39930;SDS011;26635;-35.248;149.138;2023-04-25T14:17:08;7.97;;;4.68;;
39930;SDS011;26635;-35.248;149.138;2023-04-25T14:19:39;5.22;;;3.55;;
39930;SDS011;26635;-35.248;149.138;2023-04-25T14:22:14;5.97;;;3.55;;
39930;SDS011;26635;-35.248;149.138;2023-04-25T14:24:46;5.20;;;4.07;;
39930;SDS011;26635;-35.248;149.138;2023-04-25T14:27:16;7.00;;;4.53;;
39930;SDS011;26635;-35.248;149.138;2023-04-25T14:29:47;7.47;;;4.28;;
39930;SDS011;26635;-35.248;149.138;2023-04-25T14:32:18;7.25;;;3.30;;
39930;SDS011;26635;-35.248;149.138;2023-04-25T14:34:49;7.75;;;3.90;;
39930;SDS011;26635;-35.248;149.138;2023-04-25T14:37:20;5.07;;;3.67;;
39930;SDS011;26635;-35.248;149.138;2023-04-25T14:39:51;7.75;;;3.72;;
39930;SDS011;26635;-35.248;149.138;2023-04-25T14:42:21;7.85;;;3.90;;
39930;SDS011;26635;-35.248;149.138;2023-04-25T14:44:52;7.47;;;3.42;;
39930;SDS011;26635;-35.248;149.138;2023-04-25T14:47:23;4.30;;;2.90;;
39930;SDS011;26635;-35.248;149.138;2023-04-25T14:49:53;6.15;;;3.53;;